Time,TemperatureF,DewpointF,PressureIn,WindDirection,WindDirectionDegrees,WindSpeedMPH,WindSpeedGustMPH,Humidity,HourlyPrecipIn,Conditions,Clouds,dailyrainin,SoftwareType,DateUTC
2013-03-19 00:02:00,6.0,-4.0,29.98,NNW,331,0.0,1.0,62,0.00,,,0.00,,2013-03-19 08:02:00,
2013-03-19 00:12:00,6.0,-4.0,29.98,NNW,331,0.0,1.0,62,0.00,,,0.00,,2013-03-19 08:12:00,
2013-03-19 00:21:00,4.0,-6.0,29.98,NNW,330,0.0,0.0,63,0.00,,,0.00,,2013-03-19 08:21:00,
2013-03-19 00:32:00,4.0,-6.0,29.98,NNW,330,0.0,0.0,63,0.00,,,0.00,,2013-03-19 08:32:00,
2013-03-19 00:42:00,4.0,-6.0,29.98,NNW,330,0.0,0.0,63,0.00,,,0.00,,2013-03-19 08:42:00,
2013-03-19 00:52:00,3.0,-6.0,29.99,NNW,330,0.0,0.0,64,0.00,,,0.00,,2013-03-19 08:52:00,
2013-03-19 01:02:00,3.0,-6.0,29.99,NNW,330,0.0,0.0,64,0.00,,,0.00,,2013-03-19 09:02:00,
2013-03-19 01:12:00,3.0,-6.0,29.99,NNW,330,0.0,0.0,64,0.00,,,0.00,,2013-03-19 09:12:00,
2013-03-19 01:22:00,2.0,-7.0,30.00,NNW,331,0.0,0.0,65,0.00,,,0.00,,2013-03-19 09:22:00,
2013-03-19 01:32:00,2.0,-7.0,30.00,NNW,331,0.0,0.0,65,0.00,,,0.00,,2013-03-19 09:32:00,
2013-03-19 01:42:00,2.0,-7.0,30.00,NNW,331,0.0,0.0,65,0.00,,,0.00,,2013-03-19 09:42:00,
2013-03-19 01:52:00,0.0,-8.0,30.00,NNW,330,0.0,0.0,68,0.00,,,0.00,,2013-03-19 09:52:00,
2013-03-19 02:03:00,0.0,-8.0,30.00,NNW,330,0.0,0.0,68,0.00,,,0.00,,2013-03-19 10:03:00,
2013-03-19 02:12:00,0.0,-8.0,30.00,NNW,330,0.0,0.0,68,0.00,,,0.00,,2013-03-19 10:12:00,
2013-03-19 02:22:00,-1.0,-9.0,30.01,NNW,331,0.0,0.0,69,0.00,,,0.00,,2013-03-19 10:22:00,
2013-03-19 02:32:00,-1.0,-9.0,30.01,NNW,331,0.0,0.0,69,0.00,,,0.00,,2013-03-19 10:32:00,
2013-03-19 02:42:00,-1.0,-9.0,30.01,NNW,331,0.0,0.0,69,0.00,,,0.00,,2013-03-19 10:42:00,
2013-03-19 02:52:00,-1.0,-9.0,30.02,NNW,331,0.0,0.0,69,0.00,,,0.00,,2013-03-19 10:52:00,
2013-03-19 03:02:00,-1.0,-9.0,30.02,NNW,331,0.0,0.0,69,0.00,,,0.00,,2013-03-19 11:02:00,
2013-03-19 03:12:00,-1.0,-9.0,30.02,NNW,331,0.0,0.0,69,0.00,,,0.00,,2013-03-19 11:12:00,
2013-03-19 03:22:00,0.0,-8.0,30.03,NNW,331,0.0,1.0,69,0.00,,,0.00,,2013-03-19 11:22:00,
2013-03-19 03:32:00,0.0,-8.0,30.03,NNW,331,0.0,1.0,69,0.00,,,0.00,,2013-03-19 11:32:00,
2013-03-19 03:42:00,0.0,-8.0,30.03,NNW,331,0.0,1.0,69,0.00,,,0.00,,2013-03-19 11:42:00,
2013-03-19 03:52:00,-2.0,-10.0,30.03,NNW,331,0.0,1.0,68,0.00,,,0.00,,2013-03-19 11:52:00,
2013-03-19 04:02:00,-2.0,-10.0,30.03,NNW,331,0.0,1.0,68,0.00,,,0.00,,2013-03-19 12:02:00,
2013-03-19 04:12:00,-2.0,-10.0,30.03,NNW,331,0.0,1.0,68,0.00,,,0.00,,2013-03-19 12:12:00,
2013-03-19 04:22:00,-3.0,-10.0,30.03,NNW,331,0.0,1.0,72,0.00,,,0.00,,2013-03-19 12:22:00,
2013-03-19 04:32:00,-3.0,-10.0,30.03,NNW,331,0.0,1.0,72,0.00,,,0.00,,2013-03-19 12:32:00,
2013-03-19 04:42:00,-3.0,-10.0,30.03,NNW,331,0.0,1.0,72,0.00,,,0.00,,2013-03-19 12:42:00,
2013-03-19 04:51:00,-3.0,-10.0,30.04,NNW,331,0.0,0.0,71,0.00,,,0.00,,2013-03-19 12:51:00,
2013-03-19 05:02:00,-3.0,-10.0,30.04,NNW,331,0.0,0.0,71,0.00,,,0.00,,2013-03-19 13:02:00,
2013-03-19 05:12:00,-3.0,-10.0,30.04,NNW,331,0.0,0.0,71,0.00,,,0.00,,2013-03-19 13:12:00,
2013-03-19 05:22:00,-3.0,-10.0,30.04,NNW,331,0.0,0.0,71,0.00,,,0.00,,2013-03-19 13:22:00,
2013-03-19 05:32:00,-3.0,-10.0,30.04,NNW,331,0.0,0.0,71,0.00,,,0.00,,2013-03-19 13:32:00,
2013-03-19 05:42:00,-3.0,-10.0,30.04,NNW,331,0.0,0.0,71,0.00,,,0.00,,2013-03-19 13:42:00,
2013-03-19 05:52:00,-2.0,-9.0,30.05,NNW,331,0.0,1.0,71,0.00,,,0.00,,2013-03-19 13:52:00,
2013-03-19 06:02:00,-2.0,-9.0,30.05,NNW,331,0.0,1.0,71,0.00,,,0.00,,2013-03-19 14:02:00,
2013-03-19 06:12:00,-2.0,-9.0,30.05,NNW,331,0.0,1.0,71,0.00,,,0.00,,2013-03-19 14:12:00,
2013-03-19 06:22:00,-3.0,-10.0,30.05,NNW,331,0.0,0.0,70,0.00,,,0.00,,2013-03-19 14:22:00,
2013-03-19 06:32:00,-3.0,-10.0,30.05,NNW,331,0.0,0.0,70,0.00,,,0.00,,2013-03-19 14:32:00,
2013-03-19 06:42:00,-3.0,-10.0,30.05,NNW,331,0.0,0.0,70,0.00,,,0.00,,2013-03-19 14:42:00,
2013-03-19 06:52:00,-3.0,-10.0,30.06,NNW,331,0.0,0.0,72,0.00,,,0.00,,2013-03-19 14:52:00,
2013-03-19 07:02:00,-3.0,-10.0,30.06,NNW,331,0.0,0.0,72,0.00,,,0.00,,2013-03-19 15:02:00,
2013-03-19 07:12:00,-3.0,-10.0,30.06,NNW,331,0.0,0.0,72,0.00,,,0.00,,2013-03-19 15:12:00,
2013-03-19 07:22:00,-4.0,-11.0,30.06,NNW,330,0.0,0.0,71,0.00,,,0.00,,2013-03-19 15:22:00,
2013-03-19 07:33:00,-4.0,-11.0,30.06,NNW,330,0.0,0.0,71,0.00,,,0.00,,2013-03-19 15:33:00,
2013-03-19 07:43:00,-4.0,-11.0,30.06,NNW,330,0.0,0.0,71,0.00,,,0.00,,2013-03-19 15:43:00,
2013-03-19 07:53:00,-4.0,-11.0,30.07,NNW,330,0.0,0.0,71,0.00,,,0.00,,2013-03-19 15:53:00,
2013-03-19 08:03:00,-4.0,-11.0,30.07,NNW,330,0.0,0.0,71,0.00,,,0.00,,2013-03-19 16:03:00,
2013-03-19 08:13:00,-4.0,-11.0,30.07,NNW,330,0.0,0.0,71,0.00,,,0.00,,2013-03-19 16:13:00,
2013-03-19 08:23:00,-4.0,-10.0,30.06,NNW,330,0.0,0.0,73,0.00,,,0.00,,2013-03-19 16:23:00,
2013-03-19 08:43:00,-4.0,-10.0,30.06,NNW,330,0.0,0.0,73,0.00,,,0.00,,2013-03-19 16:43:00,
2013-03-19 08:53:00,-4.0,-11.0,30.08,NNW,330,0.0,0.0,71,0.00,,,0.00,,2013-03-19 16:53:00,
2013-03-19 09:02:00,-4.0,-11.0,30.08,NNW,330,0.0,0.0,71,0.00,,,0.00,,2013-03-19 17:02:00,
2013-03-19 09:13:00,-4.0,-11.0,30.08,NNW,330,0.0,0.0,71,0.00,,,0.00,,2013-03-19 17:13:00,
2013-03-19 09:23:00,-5.0,-12.0,30.08,NNW,331,0.0,0.0,72,0.00,,,0.00,,2013-03-19 17:23:00,
2013-03-19 09:34:00,-5.0,-12.0,30.08,NNW,331,0.0,0.0,72,0.00,,,0.00,,2013-03-19 17:34:00,
2013-03-19 09:43:00,-5.0,-12.0,30.08,NNW,331,0.0,0.0,72,0.00,,,0.00,,2013-03-19 17:43:00,
2013-03-19 09:52:00,-3.0,-9.0,30.08,NNW,331,0.0,0.0,75,0.00,,,0.00,,2013-03-19 17:52:00,
2013-03-19 10:02:00,-3.0,-9.0,30.08,NNW,331,0.0,0.0,75,0.00,,,0.00,,2013-03-19 18:02:00,
2013-03-19 10:13:00,-3.0,-9.0,30.08,NNW,331,0.0,0.0,75,0.00,,,0.00,,2013-03-19 18:13:00,
2013-03-19 10:23:00,0.0,-7.0,30.08,NNW,331,0.0,2.0,73,0.00,,,0.00,,2013-03-19 18:23:00,
2013-03-19 10:52:00,1.0,-7.0,30.08,NNW,341,0.0,1.0,69,0.00,,,0.00,,2013-03-19 18:52:00,
2013-03-19 11:02:00,1.0,-7.0,30.08,NNW,341,0.0,1.0,69,0.00,,,0.00,,2013-03-19 19:02:00,
2013-03-19 11:12:00,1.0,-7.0,30.08,NNW,341,0.0,1.0,69,0.00,,,0.00,,2013-03-19 19:12:00,
2013-03-19 11:22:00,4.0,-4.0,30.08,NNW,341,0.0,0.0,68,0.00,,,0.00,,2013-03-19 19:22:00,
2013-03-19 11:32:00,4.0,-4.0,30.08,NNW,341,0.0,0.0,68,0.00,,,0.00,,2013-03-19 19:32:00,
2013-03-19 11:42:00,4.0,-4.0,30.08,NNW,341,0.0,0.0,68,0.00,,,0.00,,2013-03-19 19:42:00,
2013-03-19 11:52:00,6.0,-4.0,30.08,West,271,2.0,3.0,64,0.00,,,0.00,,2013-03-19 19:52:00,
2013-03-19 12:02:00,6.0,-4.0,30.08,West,271,2.0,3.0,64,0.00,,,0.00,,2013-03-19 20:02:00,
2013-03-19 12:12:00,6.0,-4.0,30.08,West,271,2.0,3.0,64,0.00,,,0.00,,2013-03-19 20:12:00,
2013-03-19 12:22:00,8.0,-3.0,30.08,West,271,0.0,3.0,61,0.00,,,0.00,,2013-03-19 20:22:00,
2013-03-19 12:32:00,8.0,-3.0,30.08,West,271,0.0,3.0,61,0.00,,,0.00,,2013-03-19 20:32:00,
2013-03-19 12:42:00,8.0,-3.0,30.08,West,271,0.0,3.0,61,0.00,,,0.00,,2013-03-19 20:42:00,
2013-03-19 12:52:00,10.0,-2.0,30.08,West,273,0.0,2.0,58,0.00,,,0.00,,2013-03-19 20:52:00,
2013-03-19 13:02:00,10.0,-2.0,30.08,West,273,0.0,2.0,58,0.00,,,0.00,,2013-03-19 21:02:00,
2013-03-19 13:11:00,10.0,-2.0,30.08,West,273,0.0,2.0,58,0.00,,,0.00,,2013-03-19 21:11:00,
2013-03-19 13:22:00,11.0,-1.0,30.07,West,269,1.0,4.0,57,0.00,,,0.00,,2013-03-19 21:22:00,
2013-03-19 13:33:00,11.0,-1.0,30.07,West,269,1.0,4.0,57,0.00,,,0.00,,2013-03-19 21:33:00,
2013-03-19 13:42:00,11.0,-1.0,30.07,West,269,1.0,4.0,57,0.00,,,0.00,,2013-03-19 21:42:00,
2013-03-19 13:52:00,13.0,-1.0,30.07,West,268,0.0,3.0,53,0.00,,,0.00,,2013-03-19 21:52:00,
2013-03-19 14:03:00,13.0,-1.0,30.07,West,268,0.0,3.0,53,0.00,,,0.00,,2013-03-19 22:03:00,
2013-03-19 14:12:00,13.0,-1.0,30.07,West,268,0.0,3.0,53,0.00,,,0.00,,2013-03-19 22:12:00,
2013-03-19 14:22:00,15.0,0.0,30.06,South,185,1.0,4.0,50,0.00,,,0.00,,2013-03-19 22:22:00,
2013-03-19 14:33:00,15.0,0.0,30.06,South,185,1.0,4.0,50,0.00,,,0.00,,2013-03-19 22:33:00,
2013-03-19 14:43:00,15.0,0.0,30.06,South,185,1.0,4.0,50,0.00,,,0.00,,2013-03-19 22:43:00,
2013-03-19 14:52:00,16.0,0.0,30.05,South,179,1.0,5.0,49,0.00,,,0.00,,2013-03-19 22:52:00,
2013-03-19 15:02:00,16.0,0.0,30.05,South,179,1.0,5.0,49,0.00,,,0.00,,2013-03-19 23:02:00,
2013-03-19 15:12:00,16.0,0.0,30.05,South,179,1.0,5.0,49,0.00,,,0.00,,2013-03-19 23:12:00,
2013-03-19 15:22:00,16.0,-1.0,30.05,SW,215,3.0,5.0,47,0.00,,,0.00,,2013-03-19 23:22:00,
2013-03-19 15:32:00,16.0,-1.0,30.05,SW,215,3.0,5.0,47,0.00,,,0.00,,2013-03-19 23:32:00,
2013-03-19 15:42:00,16.0,-1.0,30.05,SW,215,3.0,5.0,47,0.00,,,0.00,,2013-03-19 23:42:00,
2013-03-19 15:51:00,17.0,0.0,30.04,SSW,198,2.0,7.0,46,0.00,,,0.00,,2013-03-19 23:51:00,
2013-03-19 16:02:00,17.0,0.0,30.04,SSW,198,2.0,7.0,46,0.00,,,0.00,,2013-03-20 00:02:00,
2013-03-19 16:12:00,17.0,0.0,30.04,SSW,198,2.0,7.0,46,0.00,,,0.00,,2013-03-20 00:12:00,
2013-03-19 16:22:00,18.0,-1.0,30.03,SSW,207,3.0,7.0,43,0.00,,,0.00,,2013-03-20 00:22:00,
2013-03-19 16:32:00,18.0,-1.0,30.03,SSW,207,3.0,7.0,43,0.00,,,0.00,,2013-03-20 00:32:00,
2013-03-19 16:42:00,18.0,-1.0,30.03,SSW,207,3.0,7.0,43,0.00,,,0.00,,2013-03-20 00:42:00,
2013-03-19 16:52:00,17.0,0.0,30.03,West,275,2.0,5.0,47,0.00,,,0.00,,2013-03-20 00:52:00,
2013-03-19 17:02:00,17.0,0.0,30.03,West,275,2.0,5.0,47,0.00,,,0.00,,2013-03-20 01:02:00,
2013-03-19 17:12:00,17.0,0.0,30.03,West,275,2.0,5.0,47,0.00,,,0.00,,2013-03-20 01:12:00,
2013-03-19 17:22:00,16.0,-1.0,30.02,SW,233,2.0,5.0,47,0.00,,,0.00,,2013-03-20 01:22:00,
2013-03-19 17:32:00,16.0,-1.0,30.02,SW,233,2.0,5.0,47,0.00,,,0.00,,2013-03-20 01:32:00,
2013-03-19 17:42:00,16.0,-1.0,30.02,SW,233,2.0,5.0,47,0.00,,,0.00,,2013-03-20 01:42:00,
2013-03-19 17:52:00,15.0,0.0,30.02,SW,227,1.0,4.0,51,0.00,,,0.00,,2013-03-20 01:52:00,
2013-03-19 18:02:00,15.0,0.0,30.02,SW,227,1.0,4.0,51,0.00,,,0.00,,2013-03-20 02:02:00,
2013-03-19 18:11:00,15.0,0.0,30.02,SW,227,1.0,4.0,51,0.00,,,0.00,,2013-03-20 02:11:00,
2013-03-19 18:21:00,15.0,1.0,30.01,West,269,0.0,3.0,54,0.00,,,0.00,,2013-03-20 02:21:00,
2013-03-19 18:32:00,15.0,1.0,30.01,West,269,0.0,3.0,54,0.00,,,0.00,,2013-03-20 02:32:00,
2013-03-19 18:42:00,15.0,1.0,30.01,West,269,0.0,3.0,54,0.00,,,0.00,,2013-03-20 02:42:00,
2013-03-19 18:52:00,15.0,1.0,30.01,SSW,212,1.0,4.0,53,0.00,,,0.00,,2013-03-20 02:52:00,
2013-03-19 19:02:00,15.0,1.0,30.01,SSW,212,1.0,4.0,53,0.00,,,0.00,,2013-03-20 03:02:00,
2013-03-19 19:12:00,15.0,1.0,30.00,WSW,240,0.0,1.0,53,0.00,,,0.00,,2013-03-20 03:12:00,
2013-03-19 19:22:00,15.0,1.0,30.00,WSW,240,0.0,1.0,53,0.00,,,0.00,,2013-03-20 03:22:00,
2013-03-19 19:33:00,15.0,1.0,30.00,WSW,240,0.0,1.0,53,0.00,,,0.00,,2013-03-20 03:33:00,
2013-03-19 19:42:00,15.0,1.0,30.00,WSW,240,0.0,1.0,53,0.00,,,0.00,,2013-03-20 03:42:00,
2013-03-19 19:52:00,14.0,-3.0,30.00,NW,323,0.0,2.0,45,0.00,,,0.00,,2013-03-20 03:52:00,
2013-03-19 20:02:00,14.0,-3.0,30.00,NW,323,0.0,2.0,45,0.00,,,0.00,,2013-03-20 04:02:00,
2013-03-19 20:12:00,14.0,-3.0,30.00,NW,323,0.0,2.0,45,0.00,,,0.00,,2013-03-20 04:12:00,
2013-03-19 20:22:00,13.0,-3.0,30.00,NW,314,0.0,1.0,48,0.00,,,0.00,,2013-03-20 04:22:00,
2013-03-19 20:32:00,13.0,-3.0,30.00,NW,314,0.0,1.0,48,0.00,,,0.00,,2013-03-20 04:32:00,
2013-03-19 20:43:00,13.0,-3.0,30.00,NW,314,0.0,1.0,48,0.00,,,0.00,,2013-03-20 04:43:00,
2013-03-19 20:52:00,11.0,-3.0,30.00,NW,314,0.0,0.0,53,0.00,,,0.00,,2013-03-20 04:52:00,
2013-03-19 21:02:00,11.0,-3.0,30.00,NW,314,0.0,0.0,53,0.00,,,0.00,,2013-03-20 05:02:00,
2013-03-19 21:12:00,8.0,-4.0,30.00,NW,314,0.0,0.0,57,0.00,,,0.00,,2013-03-20 05:12:00,
2013-03-19 21:22:00,8.0,-4.0,30.00,NW,314,0.0,0.0,57,0.00,,,0.00,,2013-03-20 05:22:00,
2013-03-19 21:32:00,8.0,-4.0,30.00,NW,314,0.0,0.0,57,0.00,,,0.00,,2013-03-20 05:32:00,
2013-03-19 21:42:00,8.0,-4.0,30.00,NW,314,0.0,0.0,57,0.00,,,0.00,,2013-03-20 05:42:00,
2013-03-19 21:52:00,6.0,-5.0,30.00,NW,314,0.0,0.0,59,0.00,,,0.00,,2013-03-20 05:52:00,
2013-03-19 22:02:00,6.0,-5.0,30.00,NW,314,0.0,0.0,59,0.00,,,0.00,,2013-03-20 06:02:00,
2013-03-19 22:12:00,6.0,-5.0,30.00,NW,314,0.0,0.0,59,0.00,,,0.00,,2013-03-20 06:12:00,
2013-03-19 22:22:00,4.0,-6.0,29.99,NW,314,0.0,0.0,61,0.00,,,0.00,,2013-03-20 06:22:00,
2013-03-19 22:32:00,4.0,-6.0,29.99,NW,314,0.0,0.0,61,0.00,,,0.00,,2013-03-20 06:32:00,
2013-03-19 22:42:00,4.0,-6.0,29.99,NW,314,0.0,0.0,61,0.00,,,0.00,,2013-03-20 06:42:00,
2013-03-19 22:52:00,2.0,-8.0,29.99,NW,314,0.0,1.0,61,0.00,,,0.00,,2013-03-20 06:52:00,
2013-03-19 23:02:00,2.0,-8.0,29.99,NW,314,0.0,1.0,61,0.00,,,0.00,,2013-03-20 07:02:00,
2013-03-19 23:12:00,2.0,-8.0,29.99,NW,314,0.0,1.0,61,0.00,,,0.00,,2013-03-20 07:12:00,
2013-03-19 23:22:00,1.0,-9.0,29.99,NW,314,0.0,0.0,62,0.00,,,0.00,,2013-03-20 07:22:00,
2013-03-19 23:32:00,1.0,-9.0,29.99,NW,314,0.0,0.0,62,0.00,,,0.00,,2013-03-20 07:32:00,
2013-03-19 23:42:00,1.0,-9.0,29.99,NW,314,0.0,0.0,62,0.00,,,0.00,,2013-03-20 07:42:00,
2013-03-19 23:52:00,1.0,-9.0,29.98,NW,314,0.0,0.0,63,0.00,,,0.00,,2013-03-20 07:52:00,